createdAt,value
2022-12-24T00:01:39.311Z,100140.53
2022-12-24T00:04:06.231Z,100153.78
2022-12-24T00:06:32.816Z,100162.44
2022-12-24T00:08:59.287Z,100161.94
2022-12-24T00:11:25.797Z,100162.44
2022-12-24T00:13:52.247Z,100167.34
2022-12-24T00:16:18.807Z,100176.72
2022-12-24T00:18:46.598Z,100169.16
2022-12-24T00:21:14.867Z,100176.03
2022-12-24T00:23:41.636Z,100179.59
2022-12-24T00:26:08.284Z,100176.47
2022-12-24T00:28:34.850Z,100174.19
2022-12-24T00:31:07.769Z,100166.53
2022-12-24T00:33:34.274Z,100176.38
2022-12-24T00:36:00.645Z,100179.72
2022-12-24T00:38:27.116Z,100170.38
2022-12-24T00:41:04.371Z,100175.91
2022-12-24T00:43:31.017Z,100173.38
2022-12-24T00:45:57.951Z,100168.09
2022-12-24T00:48:24.696Z,100166.41
2022-12-24T00:50:51.539Z,100166.19
2022-12-24T00:53:18.723Z,100172.56
2022-12-24T00:55:45.136Z,100178.88
2022-12-24T00:58:11.536Z,100174.19
2022-12-24T01:00:38.313Z,100177.22
2022-12-24T01:03:04.782Z,100177.44
2022-12-24T01:05:31.330Z,100181.06
2022-12-24T01:07:57.794Z,100179.97
2022-12-24T01:10:24.416Z,100172.19
2022-12-24T01:12:50.853Z,100176.03
2022-12-24T01:15:17.896Z,100175.41
2022-12-24T01:17:44.303Z,100176.53
2022-12-24T01:20:15.424Z,100189.47
2022-12-24T01:22:42.237Z,100189.69
2022-12-24T01:25:09.973Z,100199.91
2022-12-24T01:27:36.476Z,100196.56
2022-12-24T01:30:04.103Z,100200.38
2022-12-24T01:32:30.492Z,100208.66
2022-12-24T01:34:56.973Z,100220.78
2022-12-24T01:37:23.827Z,100217.78
2022-12-24T01:39:50.272Z,100221.13
2022-12-24T01:42:38.469Z,100231.34
2022-12-24T01:45:38.634Z,100227.97
2022-12-24T01:48:08.890Z,100235.66
2022-12-24T01:50:35.351Z,100239.00
2022-12-24T01:53:03.027Z,100246.81
2022-12-24T01:55:29.435Z,100246.56
2022-12-24T01:57:58.543Z,100243.56
2022-12-24T02:00:24.994Z,100236.38
2022-12-24T02:02:53.985Z,100238.88
2022-12-24T02:05:36.782Z,100235.28
2022-12-24T02:08:04.708Z,100238.03
2022-12-24T02:10:31.110Z,100234.22
2022-12-24T02:12:59.268Z,100244.41
2022-12-24T02:18:37.643Z,100258.81
2022-12-24T02:21:36.321Z,100251.84
2022-12-24T02:24:15.576Z,100256.06
2022-12-24T02:27:14.381Z,100260.25
2022-12-24T02:30:02.055Z,100268.53
2022-12-24T02:32:28.378Z,100272.13
2022-12-24T02:35:05.738Z,100283.03
2022-12-24T02:37:37.184Z,100278.97
2022-12-24T02:40:15.775Z,100265.19
2022-12-24T02:42:51.207Z,100276.22
2022-12-24T02:45:26.040Z,100275.88
2022-12-24T02:47:54.974Z,100286.53
2022-12-24T02:50:22.254Z,100283.78
2022-12-24T02:52:49.423Z,100284.38
2022-12-24T02:55:37.193Z,100290.97
2022-12-24T02:58:34.449Z,100297.94
2022-12-24T03:01:28.703Z,100299.22
2022-12-24T03:04:11.412Z,100294.19
2022-12-24T03:06:42.839Z,100318.44
2022-12-24T03:09:33.704Z,100302.47
2022-12-24T03:12:07.246Z,100295.88
2022-12-24T03:14:34.889Z,100294.19
2022-12-24T03:17:03.655Z,100294.19
2022-12-24T03:19:31.470Z,100306.09
2022-12-24T03:22:01.484Z,100304.53
2022-12-24T03:24:28.141Z,100308.97
2022-12-24T03:26:55.012Z,100302.84
2022-12-24T03:29:21.559Z,100307.03
2022-12-24T03:31:50.855Z,100313.66
2022-12-24T03:34:18.880Z,100317.47
2022-12-24T03:36:47.432Z,100331.13
2022-12-24T03:39:13.811Z,100308.84
2022-12-24T03:41:40.302Z,100323.47
2022-12-24T03:44:06.726Z,100322.16
2022-12-24T03:46:33.211Z,100332.72
2022-12-24T03:48:59.669Z,100335.25
2022-12-24T03:51:26.861Z,100324.56
2022-12-24T03:53:54.265Z,100337.75
2022-12-24T03:56:21.156Z,100338.22
2022-12-24T03:58:47.927Z,100333.78
2022-12-24T04:01:15.605Z,100331.75
2022-12-24T04:03:42.229Z,100344.69
2022-12-24T04:06:11.593Z,100360.16
2022-12-24T04:08:38.420Z,100346.38
2022-12-24T04:11:09.907Z,100347.44
2022-12-24T04:13:36.967Z,100346.84
2022-12-24T04:16:07.617Z,100355.13
2022-12-24T04:18:34.860Z,100339.03
2022-12-24T04:21:01.497Z,100333.50
2022-12-24T04:23:31.215Z,100336.53
2022-12-24T04:26:00.127Z,100339.50
2022-12-24T04:28:26.510Z,100345.50
2022-12-24T04:30:58.923Z,100339.97
2022-12-24T04:33:25.560Z,100344.66
2022-12-24T04:35:51.971Z,100343.59
2022-12-24T04:38:18.616Z,100349.94
2022-12-24T04:40:45.065Z,100357.59
2022-12-24T04:43:11.491Z,100354.25
2022-12-24T04:45:38.003Z,100352.44
2022-12-24T04:48:04.550Z,100355.78
2022-12-24T04:50:30.987Z,100363.59
2022-12-24T04:52:58.661Z,100350.06
2022-12-24T04:55:25.088Z,100363.84
2022-12-24T04:57:53.234Z,100353.50
2022-12-24T05:00:20.196Z,100365.00
2022-12-24T05:02:46.840Z,100363.91
2022-12-24T05:05:13.348Z,100365.59
2022-12-24T05:07:39.740Z,100375.78
2022-12-24T05:10:07.106Z,100385.97
2022-12-24T05:12:33.540Z,100380.94
2022-12-24T05:15:00.000Z,100382.41
2022-12-24T05:17:26.480Z,100384.44
2022-12-24T05:19:52.873Z,100393.81
2022-12-24T05:22:38.037Z,100401.72
2022-12-24T05:25:23.234Z,100409.72
2022-12-24T05:27:51.567Z,100401.47
2022-12-24T05:30:18.071Z,100417.84
2022-12-24T05:32:44.629Z,100409.41
2022-12-24T05:35:10.980Z,100426.81
2022-12-24T05:37:37.341Z,100422.19
2022-12-24T05:40:04.039Z,100425.53
2022-12-24T05:42:30.510Z,100423.00
2022-12-24T05:44:56.881Z,100419.22
2022-12-24T05:47:23.291Z,100426.91
2022-12-24T05:49:49.676Z,100424.59
2022-12-24T05:52:16.079Z,100424.59
2022-12-24T05:54:42.545Z,100410.81
2022-12-24T05:57:08.940Z,100425.22
2022-12-24T05:59:35.480Z,100426.50
2022-12-24T06:02:01.982Z,100430.34
2022-12-24T06:04:29.393Z,100437.16
2022-12-24T06:06:56.012Z,100439.31
2022-12-24T06:09:22.472Z,100441.47
2022-12-24T06:11:48.861Z,100446.97
2022-12-24T06:14:15.342Z,100455.69
2022-12-24T06:16:41.842Z,100447.66
2022-12-24T06:19:08.216Z,100435.16
2022-12-24T06:21:34.667Z,100436.09
2022-12-24T06:24:01.569Z,100440.38
2022-12-24T06:26:28.023Z,100454.63
2022-12-24T06:28:54.598Z,100445.34
2022-12-24T06:31:23.295Z,100456.22
2022-12-24T06:33:50.656Z,100458.81
2022-12-24T06:36:20.316Z,100449.56
2022-12-24T06:38:48.011Z,100461.47
2022-12-24T06:41:15.852Z,100444.81
2022-12-24T06:43:50.170Z,100457.34
2022-12-24T06:46:17.409Z,100454.19
2022-12-24T06:48:45.500Z,100456.56
2022-12-24T06:51:13.464Z,100460.84
2022-12-24T06:53:40.115Z,100455.78
2022-12-24T06:56:11.570Z,100466.16
2022-12-24T06:58:38.497Z,100458.56
2022-12-24T07:01:07.001Z,100475.34
2022-12-24T07:03:34.125Z,100470.28
2022-12-24T07:06:00.877Z,100484.47
2022-12-24T07:08:27.817Z,100476.44
2022-12-24T07:10:54.759Z,100481.56
2022-12-24T07:13:21.627Z,100479.28
2022-12-24T07:15:57.119Z,100480.31
2022-12-24T07:18:23.592Z,100481.84
2022-12-24T07:20:49.977Z,100496.91
2022-12-24T07:23:16.390Z,100495.84
2022-12-24T07:25:43.102Z,100502.66
2022-12-24T07:28:09.489Z,100503.97
2022-12-24T07:30:36.094Z,100506.06
2022-12-24T07:33:02.545Z,100516.03
2022-12-24T07:35:28.993Z,100516.22
2022-12-24T07:37:55.380Z,100522.59
2022-12-24T07:40:21.836Z,100520.88
2022-12-24T07:42:48.259Z,100529.38
2022-12-24T07:45:14.659Z,100535.72
2022-12-24T07:47:41.034Z,100526.84
2022-12-24T07:50:08.278Z,100538.94
2022-12-24T07:52:34.701Z,100546.75
2022-12-24T07:55:01.086Z,100550.19
2022-12-24T07:57:27.459Z,100556.13
2022-12-24T07:59:53.877Z,100558.25
2022-12-24T08:02:20.418Z,100553.81
2022-12-24T08:04:46.969Z,100551.03
2022-12-24T08:07:13.308Z,100555.94
2022-12-24T08:09:39.842Z,100546.00
2022-12-24T08:12:06.478Z,100555.28
2022-12-24T08:14:32.999Z,100548.13
2022-12-24T08:16:59.459Z,100547.47
2022-12-24T08:19:25.968Z,100555.72
2022-12-24T08:21:52.396Z,100558.47
2022-12-24T08:24:18.833Z,100561.22
2022-12-24T08:26:45.302Z,100563.78
2022-12-24T08:29:11.958Z,100564.63
2022-12-24T08:31:38.509Z,100579.00
2022-12-24T08:34:07.008Z,100572.66
2022-12-24T08:36:34.401Z,100577.31
2022-12-24T08:39:03.510Z,100590.84
2022-12-24T08:41:31.589Z,100589.56
2022-12-24T08:43:58.325Z,100581.50
2022-12-24T08:46:24.870Z,100598.63
2022-12-24T08:48:51.430Z,100598.38
2022-12-24T08:51:19.182Z,100592.03
2022-12-24T08:53:46.776Z,100597.25
2022-12-24T08:56:13.564Z,100600.59
2022-12-24T08:58:40.075Z,100593.13
2022-12-24T09:01:14.948Z,100593.09
2022-12-24T09:03:42.112Z,100595.19
2022-12-24T09:06:09.004Z,100592.38
2022-12-24T09:08:36.146Z,100596.16
2022-12-24T09:11:10.087Z,100599.50
2022-12-24T09:13:36.581Z,100596.44
2022-12-24T09:16:03.784Z,100599.56
2022-12-24T09:18:30.412Z,100602.03
2022-12-24T09:20:59.856Z,100610.66
2022-12-24T09:23:26.543Z,100617.56
2022-12-24T09:25:52.964Z,100626.19
2022-12-24T09:28:20.078Z,100628.81
2022-12-24T09:30:55.763Z,100634.44
2022-12-24T09:33:22.289Z,100639.69
2022-12-24T09:35:51.442Z,100627.50
2022-12-24T09:38:18.411Z,100638.69
2022-12-24T09:40:44.973Z,100646.06
2022-12-24T09:43:17.846Z,100648.88
2022-12-24T09:46:08.482Z,100641.59
2022-12-24T09:48:39.543Z,100649.81
2022-12-24T09:51:20.940Z,100633.78
2022-12-24T09:54:00.199Z,100650.16
2022-12-24T09:56:47.855Z,100653.06
2022-12-24T09:59:40.735Z,100665.75
2022-12-24T10:02:18.928Z,100672.16
2022-12-24T10:04:47.250Z,100675.47
2022-12-24T10:07:29.466Z,100674.28
2022-12-24T10:10:10.411Z,100677.56
2022-12-24T10:12:50.427Z,100681.06
2022-12-24T10:15:31.260Z,100687.19
2022-12-24T10:18:48.907Z,100671.66
2022-12-24T10:21:33.601Z,100675.28
2022-12-24T10:24:50.255Z,100664.66
2022-12-24T10:27:21.678Z,100672.84
2022-12-24T10:29:54.289Z,100675.34
2022-12-24T10:32:28.565Z,100671.25
2022-12-24T10:35:02.224Z,100671.53
2022-12-24T10:37:30.086Z,100659.97
2022-12-24T10:39:59.069Z,100669.53
2022-12-24T10:42:36.597Z,100662.34
2022-12-24T10:45:06.174Z,100669.34
2022-12-24T10:47:36.849Z,100675.59
2022-12-24T10:50:19.270Z,100675.72
2022-12-24T10:52:47.069Z,100676.44
2022-12-24T10:55:19.168Z,100667.78
2022-12-24T10:57:56.344Z,100666.78
2022-12-24T11:00:28.466Z,100666.44
2022-12-24T11:03:20.012Z,100668.00
2022-12-24T11:05:46.526Z,100667.88
2022-12-24T11:08:13.194Z,100656.44
2022-12-24T11:10:42.858Z,100650.16
2022-12-24T11:13:39.312Z,100666.44
2022-12-24T11:16:31.981Z,100659.22
2022-12-24T11:19:01.040Z,100653.16
2022-12-24T11:21:32.092Z,100653.72
2022-12-24T11:24:04.271Z,100657.63
2022-12-24T11:26:31.433Z,100655.72
2022-12-24T11:29:15.879Z,100654.03
2022-12-24T11:31:44.852Z,100660.16
2022-12-24T11:34:37.564Z,100652.94
2022-12-24T11:37:24.638Z,100653.16
2022-12-24T11:39:57.947Z,100658.13
2022-12-24T11:42:34.692Z,100665.16
2022-12-24T11:45:05.763Z,100664.75
2022-12-24T11:47:40.532Z,100668.50
2022-12-24T11:50:20.087Z,100661.75
2022-12-24T11:52:49.761Z,100663.66
2022-12-24T11:55:33.970Z,100653.53
2022-12-24T11:58:16.913Z,100652.81
2022-12-24T12:00:45.040Z,100653.22
2022-12-24T12:03:27.781Z,100646.72
2022-12-24T12:05:55.951Z,100651.63
2022-12-24T12:08:23.881Z,100647.94
2022-12-24T12:10:53.078Z,100645.28
2022-12-24T12:13:26.955Z,100650.69
2022-12-24T12:16:14.538Z,100654.31
2022-12-24T12:18:46.980Z,100655.06
2022-12-24T12:21:24.268Z,100656.94
2022-12-24T12:23:59.876Z,100653.19
2022-12-24T12:26:30.150Z,100659.94
2022-12-24T12:29:09.987Z,100658.09
2022-12-24T12:31:39.162Z,100666.56
2022-12-24T12:34:29.567Z,100670.88
2022-12-24T12:37:02.607Z,100670.59
2022-12-24T12:39:31.297Z,100672.84
2022-12-24T12:42:34.162Z,100664.84
2022-12-24T12:45:32.106Z,100664.28
2022-12-24T12:48:24.058Z,100673.84
2022-12-24T12:51:01.974Z,100671.25
2022-12-24T12:53:40.338Z,100669.81
2022-12-24T12:56:14.144Z,100672.97
2022-12-24T12:59:00.149Z,100672.03
2022-12-24T13:01:48.445Z,100664.28
2022-12-24T13:04:33.173Z,100659.91
2022-12-24T13:07:05.233Z,100668.63
2022-12-24T13:09:45.194Z,100656.44
2022-12-24T13:12:17.297Z,100646.25
2022-12-24T13:15:11.673Z,100654.16
2022-12-24T13:17:43.811Z,100648.25
2022-12-24T13:20:36.798Z,100655.75
2022-12-24T13:23:13.460Z,100657.56
2022-12-24T13:25:46.460Z,100647.53
2022-12-24T13:28:22.129Z,100659.59
2022-12-24T13:30:59.271Z,100654.84
2022-12-24T13:33:37.633Z,100670.44
2022-12-24T13:36:18.867Z,100671.00
2022-12-24T13:38:58.455Z,100670.03
2022-12-24T13:41:40.667Z,100676.56
2022-12-24T13:44:12.610Z,100677.22
2022-12-24T13:47:03.198Z,100682.78
2022-12-24T13:49:31.924Z,100685.41
2022-12-24T13:52:15.896Z,100693.94
2022-12-24T13:54:47.440Z,100693.56
2022-12-24T13:57:32.715Z,100691.41
2022-12-24T14:00:20.509Z,100706.31
2022-12-24T14:03:03.774Z,100708.16
2022-12-24T14:05:30.217Z,100721.63
2022-12-24T14:07:58.052Z,100731.06
2022-12-24T14:10:29.237Z,100731.97
2022-12-24T14:12:55.802Z,100720.72
2022-12-24T14:15:45.267Z,100717.03
2022-12-24T14:18:18.868Z,100713.63
2022-12-24T14:20:50.799Z,100712.28
2022-12-24T14:23:43.956Z,100716.06
2022-12-24T14:26:18.834Z,100722.81
2022-12-24T14:28:53.342Z,100728.84
2022-12-24T14:31:19.854Z,100724.59
2022-12-24T14:33:46.764Z,100719.94
2022-12-24T14:36:18.466Z,100721.28
2022-12-24T14:38:45.952Z,100725.31
2022-12-24T14:41:29.550Z,100731.47
2022-12-24T14:44:11.926Z,100737.66
2022-12-24T14:46:45.674Z,100740.34
2022-12-24T14:49:20.465Z,100742.31
2022-12-24T14:52:45.902Z,100745.84
2022-12-24T14:55:45.170Z,100744.81
2022-12-24T14:58:26.407Z,100761.22
2022-12-24T15:00:56.183Z,100768.09
2022-12-24T15:03:25.073Z,100754.06
2022-12-24T15:05:59.264Z,100759.75
2022-12-24T15:08:51.903Z,100767.81
2022-12-24T15:11:21.281Z,100775.97
2022-12-24T15:13:53.333Z,100771.53
2022-12-24T15:16:27.516Z,100772.00
2022-12-24T15:18:58.741Z,100769.97
2022-12-24T15:21:41.215Z,100776.69
2022-12-24T15:24:29.374Z,100782.06
2022-12-24T15:26:56.242Z,100786.53
2022-12-24T15:29:29.945Z,100786.53
2022-12-24T15:32:02.169Z,100785.91
2022-12-24T15:34:35.189Z,100804.53
2022-12-24T15:37:23.863Z,100799.81
2022-12-24T15:40:15.563Z,100798.72
2022-12-24T15:42:42.607Z,100818.00
2022-12-24T15:45:28.170Z,100816.66
2022-12-24T15:48:06.949Z,100823.56
2022-12-24T15:50:36.779Z,100818.81
2022-12-24T15:53:19.247Z,100821.00
2022-12-24T15:56:12.320Z,100825.41
2022-12-24T15:58:40.043Z,100825.94
2022-12-24T16:01:09.559Z,100821.78
2022-12-24T16:03:39.400Z,100820.63
2022-12-24T16:06:08.326Z,100825.38
2022-12-24T16:08:36.617Z,100817.63
2022-12-24T16:11:05.842Z,100816.22
2022-12-24T16:13:36.356Z,100812.91
2022-12-24T16:16:12.703Z,100822.31
2022-12-24T16:18:51.666Z,100820.69
2022-12-24T16:21:25.463Z,100825.41
2022-12-24T16:23:55.809Z,100826.28
2022-12-24T16:26:22.942Z,100825.50
2022-12-24T16:28:49.426Z,100825.78
2022-12-24T16:31:47.861Z,100831.53
2022-12-24T16:34:15.443Z,100824.13
2022-12-24T16:36:43.264Z,100819.28
2022-12-24T16:39:24.376Z,100828.25
2022-12-24T16:42:14.843Z,100835.28
2022-12-24T16:44:42.280Z,100831.31
2022-12-24T16:47:15.499Z,100826.91
2022-12-24T16:49:41.926Z,100834.34
2022-12-24T16:52:25.884Z,100838.19
2022-12-24T16:54:52.538Z,100829.31
2022-12-24T16:57:20.819Z,100826.81
2022-12-24T16:59:47.430Z,100815.81
2022-12-24T17:02:16.529Z,100835.75
2022-12-24T17:04:43.655Z,100834.09
2022-12-24T17:07:11.739Z,100841.94
2022-12-24T17:09:38.208Z,100849.38
2022-12-24T17:12:05.122Z,100851.72
2022-12-24T17:14:31.559Z,100857.00
2022-12-24T17:16:58.100Z,100859.78
2022-12-24T17:19:24.561Z,100865.31
2022-12-24T17:21:50.992Z,100868.06
2022-12-24T17:24:17.384Z,100870.59
2022-12-24T17:26:43.864Z,100868.72
2022-12-24T17:29:10.876Z,100870.19
2022-12-24T17:31:39.284Z,100871.03
2022-12-24T17:34:05.988Z,100857.91
2022-12-24T17:36:32.544Z,100858.97
2022-12-24T17:38:58.954Z,100861.47
2022-12-24T17:41:25.521Z,100857.69
2022-12-24T17:43:52.000Z,100851.75
2022-12-24T17:46:23.873Z,100857.88
2022-12-24T17:48:51.090Z,100855.75
2022-12-24T17:51:22.836Z,100864.44
2022-12-24T17:53:49.946Z,100866.94
2022-12-24T17:56:17.611Z,100876.03
2022-12-24T17:58:45.990Z,100874.97
2022-12-24T18:01:30.487Z,100888.28
2022-12-24T18:04:02.329Z,100884.03
2022-12-24T18:06:29.127Z,100871.75
2022-12-24T18:08:55.650Z,100885.50
2022-12-24T18:11:32.593Z,100885.69
2022-12-24T18:14:01.024Z,100890.34
2022-12-24T18:16:32.124Z,100895.84
2022-12-24T18:18:59.449Z,100902.19
2022-12-24T18:21:29.232Z,100909.56
2022-12-24T18:23:58.408Z,100910.22
2022-12-24T18:26:27.772Z,100918.25
2022-12-24T18:28:55.781Z,100923.56
2022-12-24T18:31:23.667Z,100922.50
2022-12-24T18:33:51.327Z,100928.63
2022-12-24T18:36:18.732Z,100907.06
2022-12-24T18:38:45.807Z,100926.72
2022-12-24T18:41:15.592Z,100927.78
2022-12-24T18:43:42.122Z,100930.75
2022-12-24T18:46:23.860Z,100928.00
2022-12-24T18:48:51.024Z,100918.91
2022-12-24T18:51:19.903Z,100930.09
2022-12-24T18:53:46.333Z,100927.53
2022-12-24T18:56:19.211Z,100935.16
2022-12-24T18:58:46.733Z,100927.94
2022-12-24T19:01:20.695Z,100919.69
2022-12-24T19:03:47.679Z,100915.28
2022-12-24T19:06:14.153Z,100912.72
2022-12-24T19:08:58.320Z,100903.63
2022-12-24T19:11:26.230Z,100901.72
2022-12-24T19:13:57.737Z,100909.28
2022-12-24T19:16:24.213Z,100898.72
2022-12-24T19:18:50.621Z,100898.72
2022-12-24T19:21:17.782Z,100909.72
2022-12-24T19:23:46.017Z,100908.66
2022-12-24T19:26:14.340Z,100907.63
2022-12-24T19:28:41.049Z,100916.50
2022-12-24T19:31:10.982Z,100910.59
2022-12-24T19:33:49.696Z,100906.78
2022-12-24T19:36:20.259Z,100914.84
2022-12-24T19:38:47.249Z,100914.00
2022-12-24T19:41:15.849Z,100914.84
2022-12-24T19:43:45.072Z,100917.59
2022-12-24T19:46:14.613Z,100919.50
2022-12-24T19:48:42.505Z,100921.16
2022-12-24T19:51:12.044Z,100922.00
2022-12-24T19:53:39.263Z,100939.56
2022-12-24T19:56:05.975Z,100950.75
2022-12-24T19:58:35.510Z,100943.56
2022-12-24T20:01:15.258Z,100942.50
2022-12-24T20:03:42.779Z,100930.88
2022-12-24T20:06:09.254Z,100924.31
2022-12-24T20:08:36.453Z,100928.13
2022-12-24T20:11:10.314Z,100928.97
2022-12-24T20:13:38.345Z,100945.69
2022-12-24T20:16:10.093Z,100951.81
2022-12-24T20:18:37.033Z,100942.50
2022-12-24T20:21:06.343Z,100941.47
2022-12-24T20:23:33.155Z,100954.13
2022-12-24T20:26:02.011Z,100963.22
2022-12-24T20:28:30.920Z,100943.16
2022-12-24T20:30:57.719Z,100929.41
2022-12-24T20:33:24.343Z,100924.97
2022-12-24T20:35:50.940Z,100934.72
2022-12-24T20:38:17.556Z,100932.81
2022-12-24T20:40:46.276Z,100939.34
2022-12-24T20:43:12.912Z,100932.81
2022-12-24T20:45:39.575Z,100935.16
2022-12-24T20:48:06.690Z,100933.03
2022-12-24T20:50:33.479Z,100922.88
2022-12-24T20:53:00.173Z,100925.44
2022-12-24T20:55:26.578Z,100940.47
2022-12-24T20:57:52.950Z,100934.75
2022-12-24T21:00:20.007Z,100933.94
2022-12-24T21:02:47.242Z,100919.53
2022-12-24T21:05:14.166Z,100925.88
2022-12-24T21:07:42.904Z,100914.03
2022-12-24T21:10:10.776Z,100917.44
2022-12-24T21:12:48.975Z,100921.22
2022-12-24T21:15:20.617Z,100924.41
2022-12-24T21:17:47.873Z,100917.00
2022-12-24T21:20:15.480Z,100921.41
2022-12-24T21:22:42.802Z,100916.78
2022-12-24T21:25:10.656Z,100918.47
2022-12-24T21:27:37.527Z,100930.94
2022-12-24T21:30:07.943Z,100927.34
2022-12-24T21:32:35.616Z,100930.75
2022-12-24T21:35:02.174Z,100925.03
2022-12-24T21:37:28.659Z,100923.13
2022-12-24T21:39:55.169Z,100920.19
2022-12-24T21:42:21.549Z,100926.31
2022-12-24T21:44:47.941Z,100916.19
2022-12-24T21:47:14.335Z,100922.34
2022-12-24T21:49:59.132Z,100926.75
2022-12-24T21:52:25.650Z,100926.75
2022-12-24T21:54:52.046Z,100937.75
2022-12-24T21:57:37.430Z,100942.00
2022-12-24T22:00:22.939Z,100948.56
2022-12-24T22:02:51.469Z,100938.59
2022-12-24T22:05:18.878Z,100945.38
2022-12-24T22:08:04.055Z,100941.97
2022-12-24T22:10:49.627Z,100947.25
2022-12-24T22:13:16.604Z,100935.16
2022-12-24T22:15:48.866Z,100929.22
2022-12-24T22:18:17.164Z,100928.59
2022-12-24T22:20:44.695Z,100943.56
2022-12-24T22:23:12.043Z,100941.69
2022-12-24T22:25:39.017Z,100943.56
2022-12-24T22:28:06.277Z,100949.72
2022-12-24T22:30:37.478Z,100959.88
2022-12-24T22:33:04.299Z,100949.06
2022-12-24T22:35:31.082Z,100940.81
2022-12-24T22:38:00.140Z,100937.03
2022-12-24T22:40:27.848Z,100933.84
2022-12-24T22:42:54.363Z,100938.72
2022-12-24T22:45:22.611Z,100940.81
2022-12-24T22:47:49.542Z,100940.81
2022-12-24T22:50:16.213Z,100942.69
2022-12-24T22:52:42.588Z,100938.28
2022-12-24T22:55:09.216Z,100930.88
2022-12-24T22:57:35.598Z,100929.19
2022-12-24T23:00:02.067Z,100926.22
2022-12-24T23:02:29.181Z,100927.06
2022-12-24T23:04:56.355Z,100927.06
2022-12-24T23:07:22.800Z,100931.53
2022-12-24T23:09:49.351Z,100930.06
2022-12-24T23:12:35.757Z,100914.88
2022-12-24T23:15:02.323Z,100912.13
2022-12-24T23:17:28.736Z,100911.88
2022-12-24T23:19:55.223Z,100921.00
2022-12-24T23:22:21.641Z,100924.59
2022-12-24T23:24:48.023Z,100918.25
2022-12-24T23:27:14.420Z,100922.69
2022-12-24T23:29:40.929Z,100923.31
2022-12-24T23:32:07.320Z,100911.94
2022-12-24T23:34:33.849Z,100911.53
2022-12-24T23:37:00.308Z,100899.25
2022-12-24T23:39:26.720Z,100894.59
2022-12-24T23:41:53.093Z,100887.00
2022-12-24T23:44:19.460Z,100885.94
2022-12-24T23:46:45.893Z,100885.75
2022-12-24T23:49:14.633Z,100874.34
2022-12-24T23:51:41.166Z,100876.03
2022-12-24T23:54:07.690Z,100873.06
2022-12-24T23:56:34.202Z,100873.06
2022-12-24T23:59:02.611Z,100871.59
